createdAt,value
2019-05-21T00:02:00.858Z,89.60
2019-05-21T00:04:29.624Z,88.50
2019-05-21T00:06:58.420Z,89.40
2019-05-21T00:09:27.228Z,89.40
2019-05-21T00:11:56.110Z,89.10
2019-05-21T00:14:24.940Z,88.30
2019-05-21T00:16:53.778Z,88.00
2019-05-21T00:19:22.546Z,88.50
2019-05-21T00:21:51.384Z,88.30
2019-05-21T00:24:20.233Z,87.10
2019-05-21T00:26:49.044Z,87.80
2019-05-21T00:29:54.611Z,86.10
2019-05-21T00:32:59.867Z,87.90
2019-05-21T00:36:04.994Z,87.60
2019-05-21T00:39:10.073Z,87.60
2019-05-21T00:42:02.887Z,87.40
2019-05-21T00:44:40.449Z,88.30
2019-05-21T00:47:11.155Z,87.90
2019-05-21T00:49:40.074Z,86.70
2019-05-21T00:52:09.573Z,86.80
2019-05-21T00:54:38.482Z,87.60
2019-05-21T00:57:07.335Z,88.80
2019-05-21T00:59:36.142Z,86.40
2019-05-21T01:02:04.991Z,87.10
2019-05-21T01:04:33.894Z,87.00
2019-05-21T01:07:02.868Z,86.80
2019-05-21T01:09:31.622Z,86.30
2019-05-21T01:12:00.491Z,86.50
2019-05-21T01:14:29.350Z,86.90
2019-05-21T01:16:58.179Z,87.10
2019-05-21T01:19:27.011Z,86.10
2019-05-21T01:21:55.840Z,85.40
2019-05-21T01:24:24.676Z,85.20
2019-05-21T01:26:53.534Z,85.20
2019-05-21T01:29:22.372Z,85.80
2019-05-21T01:31:51.245Z,84.80
2019-05-21T01:34:20.185Z,85.50
2019-05-21T01:36:49.036Z,84.70
2019-05-21T01:39:17.801Z,83.60
2019-05-21T01:41:46.649Z,84.40
2019-05-21T01:44:15.515Z,84.50
2019-05-21T01:46:44.353Z,84.60
2019-05-21T01:49:13.153Z,86.00
2019-05-21T01:51:41.963Z,84.90
2019-05-21T01:54:10.793Z,86.60
2019-05-21T01:56:39.613Z,86.00
2019-05-21T01:59:08.549Z,86.40
2019-05-21T02:01:37.370Z,86.50
2019-05-21T02:04:06.237Z,86.10
2019-05-21T02:06:35.049Z,87.30
2019-05-21T02:09:04.997Z,88.50
2019-05-21T02:11:33.829Z,89.10
2019-05-21T02:14:02.645Z,88.40
2019-05-21T02:16:32.681Z,88.80
2019-05-21T02:19:01.532Z,87.80
2019-05-21T02:21:30.294Z,87.70
2019-05-21T02:23:59.113Z,88.00
2019-05-21T02:26:27.942Z,88.50
2019-05-21T02:28:56.783Z,88.60
2019-05-21T02:31:25.652Z,89.60
2019-05-21T02:33:54.447Z,90.00
2019-05-21T02:36:23.643Z,90.20
2019-05-21T02:38:52.362Z,90.30
2019-05-21T02:41:21.146Z,90.80
2019-05-21T02:43:49.918Z,90.70
2019-05-21T02:46:18.753Z,91.30
2019-05-21T02:48:47.585Z,91.00
2019-05-21T02:51:16.365Z,90.70
2019-05-21T02:53:45.238Z,90.60
2019-05-21T02:56:14.037Z,90.80
2019-05-21T02:58:42.875Z,90.70
2019-05-21T03:01:16.910Z,89.60
2019-05-21T03:03:43.767Z,87.70
2019-05-21T03:06:14.788Z,87.20
2019-05-21T03:08:43.219Z,87.50
2019-05-21T03:11:12.066Z,86.00
2019-05-21T03:13:40.909Z,85.90
2019-05-21T03:16:09.794Z,85.10
2019-05-21T03:18:38.634Z,84.10
2019-05-21T03:21:07.570Z,84.40
2019-05-21T03:23:36.373Z,83.30
2019-05-21T03:26:05.203Z,82.50
2019-05-21T03:28:34.097Z,80.60
2019-05-21T03:31:02.923Z,81.80
2019-05-21T03:33:31.775Z,80.70
2019-05-21T03:36:00.597Z,80.60
2019-05-21T03:38:29.420Z,78.80
2019-05-21T03:40:58.243Z,80.10
2019-05-21T03:43:27.087Z,79.20
2019-05-21T03:45:55.919Z,78.90
2019-05-21T03:48:24.687Z,78.40
2019-05-21T03:50:53.553Z,80.20
2019-05-21T03:53:22.376Z,79.30
2019-05-21T03:55:51.232Z,78.90
2019-05-21T03:58:20.842Z,78.60
2019-05-21T04:00:49.786Z,79.20
2019-05-21T04:03:18.927Z,78.50
2019-05-21T04:05:49.153Z,79.60
2019-05-21T04:08:18.186Z,77.90
2019-05-21T04:10:47.060Z,77.90
2019-05-21T04:13:15.822Z,77.40
2019-05-21T04:16:02.688Z,76.10
2019-05-21T04:18:35.821Z,76.60
2019-05-21T04:21:04.636Z,76.40
2019-05-21T04:23:33.579Z,75.90
2019-05-21T04:26:04.013Z,73.90
2019-05-21T04:28:33.853Z,75.50
2019-05-21T04:31:04.116Z,74.90
2019-05-21T04:33:32.818Z,74.70
2019-05-21T04:36:03.063Z,73.00
2019-05-21T04:38:31.843Z,74.80
2019-05-21T04:41:03.712Z,74.50
2019-05-21T04:43:32.718Z,73.60
2019-05-21T04:46:01.526Z,72.80
2019-05-21T04:48:33.397Z,72.40
2019-05-21T04:51:02.194Z,70.60
2019-05-21T04:53:31.017Z,71.90
2019-05-21T04:55:59.777Z,71.20
2019-05-21T04:58:28.613Z,70.40
2019-05-21T05:00:57.390Z,70.50
2019-05-21T05:03:26.250Z,68.00
2019-05-21T05:05:55.105Z,69.00
2019-05-21T05:08:23.975Z,66.90
2019-05-21T05:10:52.758Z,67.90
2019-05-21T05:13:21.597Z,66.40
2019-05-21T05:15:50.278Z,66.80
2019-05-21T05:18:19.108Z,65.30
2019-05-21T05:20:47.933Z,65.30
2019-05-21T05:23:16.812Z,64.30
2019-05-21T05:25:45.627Z,64.20
2019-05-21T05:28:14.463Z,63.30
2019-05-21T05:30:43.267Z,63.00
2019-05-21T05:33:13.251Z,62.30
2019-05-21T05:35:42.080Z,62.60
2019-05-21T05:38:10.889Z,62.50
2019-05-21T05:40:39.660Z,61.40
2019-05-21T05:43:08.516Z,62.20
2019-05-21T05:45:37.925Z,61.80
2019-05-21T05:48:06.840Z,61.70
2019-05-21T05:50:39.955Z,61.20
2019-05-21T05:53:08.785Z,61.00
2019-05-21T05:55:37.597Z,60.50
2019-05-21T05:58:06.435Z,60.00
2019-05-21T06:00:35.276Z,60.00
2019-05-21T06:03:04.169Z,61.20
2019-05-21T06:05:32.925Z,60.70
2019-05-21T06:08:02.218Z,60.90
2019-05-21T06:10:31.063Z,60.40
2019-05-21T06:12:59.915Z,60.60
2019-05-21T06:15:28.748Z,60.60
2019-05-21T06:17:57.581Z,60.50
2019-05-21T06:20:26.418Z,60.90
2019-05-21T06:22:55.263Z,60.70
2019-05-21T06:25:24.201Z,60.20
2019-05-21T06:27:53.052Z,60.80
2019-05-21T06:30:21.913Z,60.70
2019-05-21T06:32:51.102Z,60.80
2019-05-21T06:35:19.977Z,60.70
2019-05-21T06:37:50.582Z,61.70
2019-05-21T06:40:20.139Z,59.10
2019-05-21T06:42:49.105Z,60.00
2019-05-21T06:45:19.178Z,59.70
2019-05-21T06:47:48.016Z,59.90
2019-05-21T06:50:16.922Z,59.30
2019-05-21T06:52:45.804Z,59.70
2019-05-21T06:55:15.353Z,59.10
2019-05-21T07:00:22.185Z,57.10
2019-05-21T07:02:50.959Z,58.80
2019-05-21T07:05:19.793Z,58.90
2019-05-21T07:07:48.640Z,58.10
2019-05-21T07:10:17.906Z,57.70
2019-05-21T07:12:46.933Z,58.00
2019-05-21T07:15:16.177Z,54.80
2019-05-21T07:17:45.563Z,55.70
2019-05-21T07:20:14.628Z,54.70
2019-05-21T07:22:43.521Z,54.50
2019-05-21T07:25:12.847Z,54.70
2019-05-21T07:27:41.683Z,53.10
2019-05-21T07:30:13.091Z,49.70
2019-05-21T07:32:41.937Z,50.40
2019-05-21T07:35:10.860Z,51.20
2019-05-21T07:37:39.743Z,52.90
2019-05-21T07:40:08.981Z,54.80
2019-05-21T07:42:37.836Z,56.00
2019-05-21T07:45:07.965Z,55.20
2019-05-21T07:47:36.782Z,54.60
2019-05-21T07:50:07.164Z,52.90
2019-05-21T07:52:35.997Z,52.60
2019-05-21T07:55:05.435Z,51.70
2019-05-21T07:57:34.314Z,52.80
2019-05-21T08:00:04.162Z,49.40
2019-05-21T08:02:32.979Z,50.60
2019-05-21T08:05:02.379Z,49.80
2019-05-21T08:07:31.510Z,47.80
2019-05-21T08:10:00.357Z,49.50
2019-05-21T08:12:38.964Z,50.50
2019-05-21T08:14:59.699Z,47.30
2019-05-21T08:17:28.600Z,49.50
2019-05-21T08:20:08.533Z,47.70
2019-05-21T08:22:27.943Z,48.50
2019-05-21T08:24:56.802Z,49.20
2019-05-21T08:27:25.630Z,47.50
2019-05-21T08:29:54.470Z,49.40
2019-05-21T08:32:23.333Z,49.70
2019-05-21T08:34:52.157Z,47.60
2019-05-21T08:37:20.991Z,47.70
2019-05-21T08:39:49.829Z,48.20
2019-05-21T08:42:18.663Z,47.50
2019-05-21T08:44:48.051Z,46.80
2019-05-21T08:47:16.900Z,45.40
2019-05-21T08:49:45.856Z,42.60
2019-05-21T08:52:14.697Z,41.80
2019-05-21T08:54:50.315Z,40.60
2019-05-21T08:57:19.213Z,41.90
2019-05-21T08:59:48.671Z,40.90
2019-05-21T09:02:17.776Z,39.80
2019-05-21T09:04:46.998Z,38.30
2019-05-21T09:07:15.940Z,38.20
2019-05-21T09:09:50.597Z,39.50
2019-05-21T09:12:15.687Z,39.40
2019-05-21T09:14:44.676Z,40.80
2019-05-21T09:17:13.429Z,42.40
2019-05-21T09:19:42.271Z,44.10
2019-05-21T09:22:11.160Z,42.00
2019-05-21T09:24:39.991Z,38.90
2019-05-21T09:27:08.743Z,37.40
2019-05-21T09:29:37.609Z,36.20
2019-05-21T09:32:06.406Z,35.80
2019-05-21T09:34:48.256Z,34.40
2019-05-21T09:37:18.400Z,31.60
2019-05-21T09:39:36.343Z,29.70
2019-05-21T09:42:05.231Z,29.90
2019-05-21T09:44:34.156Z,29.20
2019-05-21T09:47:10.309Z,29.00
2019-05-21T09:49:39.141Z,29.00
2019-05-21T09:52:07.997Z,29.40
2019-05-21T09:54:36.773Z,29.90
2019-05-21T09:57:07.424Z,31.30
2019-05-21T09:59:37.828Z,30.10
2019-05-21T10:02:11.223Z,30.10
2019-05-21T10:04:40.095Z,31.20
2019-05-21T10:07:08.980Z,30.20
2019-05-21T10:09:38.067Z,30.20
2019-05-21T10:12:08.497Z,28.90
2019-05-21T10:14:40.077Z,29.50
2019-05-21T10:17:08.889Z,30.80
2019-05-21T10:19:37.721Z,28.80
2019-05-21T10:22:06.708Z,27.60
2019-05-21T10:24:35.519Z,26.70
2019-05-21T10:27:04.555Z,25.30
2019-05-21T10:29:33.397Z,24.60
2019-05-21T10:32:02.244Z,25.50
2019-05-21T10:34:31.010Z,25.50
2019-05-21T10:37:01.267Z,24.30
2019-05-21T10:39:30.127Z,24.60
2019-05-21T10:41:58.947Z,23.30
2019-05-21T10:44:27.860Z,23.70
2019-05-21T10:46:56.887Z,24.20
2019-05-21T10:49:27.353Z,22.50
2019-05-21T10:51:56.219Z,22.30
2019-05-21T10:54:25.005Z,22.80
2019-05-21T10:56:53.932Z,22.30
2019-05-21T10:59:22.774Z,22.00
2019-05-21T11:01:53.194Z,23.30
2019-05-21T11:04:29.548Z,25.80
2019-05-21T11:06:58.597Z,26.80
2019-05-21T11:09:27.442Z,27.80
2019-05-21T11:11:56.258Z,28.20
2019-05-21T11:14:25.099Z,28.00
2019-05-21T11:16:53.945Z,25.40
2019-05-21T11:19:22.814Z,24.10
2019-05-21T11:21:54.590Z,24.20
2019-05-21T11:24:23.408Z,24.00
2019-05-21T11:26:52.948Z,24.70
2019-05-21T11:29:24.073Z,24.20
2019-05-21T11:31:57.123Z,23.70
2019-05-21T11:34:23.533Z,24.20
2019-05-21T11:36:52.413Z,24.00
2019-05-21T11:39:21.249Z,24.20
2019-05-21T11:41:51.694Z,23.50
2019-05-21T11:44:21.223Z,21.70
2019-05-21T11:46:51.103Z,22.40
2019-05-21T11:49:19.968Z,22.30
2019-05-21T11:51:48.959Z,21.70
2019-05-21T11:54:18.229Z,22.50
2019-05-21T11:56:47.166Z,21.50
2019-05-21T11:59:15.996Z,21.60
2019-05-21T12:01:44.923Z,21.50
2019-05-21T12:04:13.809Z,22.40
2019-05-21T12:06:42.580Z,21.20
2019-05-21T12:09:11.441Z,20.50
2019-05-21T12:11:40.283Z,20.10
2019-05-21T12:14:09.120Z,20.00
2019-05-21T12:16:37.921Z,20.30
2019-05-21T12:19:08.280Z,20.30
2019-05-21T12:21:37.263Z,20.60
2019-05-21T12:24:06.236Z,20.30
2019-05-21T12:26:35.445Z,20.70
2019-05-21T12:29:04.287Z,20.90
2019-05-21T12:31:33.128Z,21.30
2019-05-21T12:34:01.919Z,20.90
2019-05-21T12:36:30.733Z,20.20
2019-05-21T12:39:13.069Z,19.50
2019-05-21T12:41:30.006Z,20.10
2019-05-21T12:43:58.782Z,20.20
2019-05-21T12:46:27.654Z,20.30
2019-05-21T12:48:56.538Z,20.90
2019-05-21T12:51:33.944Z,19.90
2019-05-21T12:54:04.213Z,18.50
2019-05-21T12:56:33.008Z,18.30
2019-05-21T12:59:02.606Z,19.40
2019-05-21T13:01:31.562Z,18.70
2019-05-21T13:04:00.710Z,19.10
2019-05-21T13:06:29.617Z,18.10
2019-05-21T13:08:58.454Z,18.10
2019-05-21T13:11:28.700Z,19.80
2019-05-21T13:13:57.548Z,21.50
2019-05-21T13:16:26.413Z,22.70
2019-05-21T13:18:55.236Z,23.00
2019-05-21T13:21:24.101Z,25.30
2019-05-21T13:23:53.020Z,26.20
2019-05-21T13:26:21.942Z,27.30
2019-05-21T13:28:50.734Z,28.80
2019-05-21T13:31:19.598Z,27.70
2019-05-21T13:33:48.479Z,26.30
2019-05-21T13:36:17.349Z,24.10
2019-05-21T13:38:46.163Z,23.00
2019-05-21T13:41:15.001Z,22.00
2019-05-21T13:43:43.867Z,21.30
2019-05-21T13:46:12.724Z,21.00
2019-05-21T13:48:41.590Z,20.80
2019-05-21T13:51:10.388Z,20.80
2019-05-21T13:53:39.282Z,22.10
2019-05-21T13:56:08.035Z,23.80
2019-05-21T13:58:36.902Z,24.50
2019-05-21T14:01:06.353Z,25.80
2019-05-21T14:03:35.692Z,27.20
2019-05-21T14:06:04.819Z,28.10
2019-05-21T14:08:33.677Z,28.80
2019-05-21T14:11:02.588Z,29.00
2019-05-21T14:13:31.406Z,29.30
2019-05-21T14:16:00.252Z,28.50
2019-05-21T14:18:29.070Z,28.60
2019-05-21T14:20:57.949Z,28.90
2019-05-21T14:23:26.838Z,28.70
2019-05-21T14:25:55.675Z,28.00
2019-05-21T14:28:24.557Z,27.80
2019-05-21T14:30:53.399Z,28.40
2019-05-21T14:33:22.830Z,27.50
2019-05-21T14:35:51.674Z,28.40
2019-05-21T14:38:20.600Z,28.40
2019-05-21T14:40:49.362Z,29.30
2019-05-21T14:43:18.217Z,29.50
2019-05-21T14:45:46.979Z,30.00
2019-05-21T14:48:15.827Z,29.90
2019-05-21T14:50:44.656Z,30.30
2019-05-21T14:53:14.088Z,30.80
2019-05-21T14:55:42.929Z,30.10
2019-05-21T14:58:11.768Z,31.10
2019-05-21T15:00:40.828Z,30.10
2019-05-21T15:03:24.287Z,31.10
2019-05-21T15:05:40.470Z,31.60
2019-05-21T15:08:09.387Z,32.00
2019-05-21T15:10:47.788Z,32.30
2019-05-21T15:13:08.732Z,33.60
2019-05-21T15:15:37.563Z,34.20
2019-05-21T15:18:06.448Z,35.20
2019-05-21T15:20:36.872Z,35.20
2019-05-21T15:23:05.785Z,33.40
2019-05-21T15:25:37.283Z,32.00
2019-05-21T15:28:06.086Z,31.30
2019-05-21T15:30:35.010Z,29.60
2019-05-21T15:33:04.090Z,29.10
2019-05-21T15:35:34.383Z,29.80
2019-05-21T15:38:03.238Z,29.90
2019-05-21T15:40:32.097Z,32.50
2019-05-21T15:43:00.951Z,34.60
2019-05-21T15:45:29.798Z,35.10
2019-05-21T15:47:58.690Z,35.20
2019-05-21T15:50:27.559Z,36.30
2019-05-21T15:52:56.409Z,36.90
2019-05-21T15:55:25.259Z,37.10
2019-05-21T15:57:54.052Z,37.20
2019-05-21T16:00:24.201Z,37.80
2019-05-21T16:02:52.967Z,37.90
2019-05-21T16:05:21.814Z,38.30
2019-05-21T16:07:50.603Z,38.50
2019-05-21T16:10:19.470Z,39.10
2019-05-21T16:12:48.307Z,38.80
2019-05-21T16:15:17.263Z,39.00
2019-05-21T16:17:46.979Z,36.80
2019-05-21T16:20:17.508Z,38.30
2019-05-21T16:23:05.628Z,38.60
2019-05-21T16:25:34.470Z,38.20
2019-05-21T16:28:03.488Z,38.60
2019-05-21T16:30:32.264Z,38.90
2019-05-21T16:33:01.185Z,39.70
2019-05-21T16:35:30.520Z,39.80
2019-05-21T16:37:59.396Z,40.10
2019-05-21T16:40:29.764Z,40.00
2019-05-21T16:42:58.600Z,40.50
2019-05-21T16:45:27.458Z,40.50
2019-05-21T16:47:56.617Z,40.00
2019-05-21T16:50:25.445Z,40.00
2019-05-21T16:52:54.251Z,39.20
2019-05-21T16:55:23.188Z,39.80
2019-05-21T16:57:55.779Z,40.20
2019-05-21T17:00:23.098Z,40.40
2019-05-21T17:02:51.909Z,40.00
2019-05-21T17:05:20.927Z,40.70
2019-05-21T17:07:51.305Z,40.20
2019-05-21T17:10:20.121Z,41.00
2019-05-21T17:12:48.925Z,41.60
2019-05-21T17:15:17.972Z,41.90
2019-05-21T17:17:46.819Z,40.00
2019-05-21T17:20:16.493Z,40.10
2019-05-21T17:22:45.316Z,38.70
2019-05-21T17:25:14.645Z,40.60
2019-05-21T17:27:43.539Z,40.70
2019-05-21T17:30:12.739Z,41.30
2019-05-21T17:32:41.823Z,41.40
2019-05-21T17:35:11.122Z,42.40
2019-05-21T17:37:40.024Z,42.10
2019-05-21T17:40:09.466Z,42.40
2019-05-21T17:42:39.356Z,42.70
2019-05-21T17:45:11.198Z,44.10
2019-05-21T17:47:40.036Z,44.20
2019-05-21T17:50:09.429Z,44.60
2019-05-21T17:52:38.626Z,45.50
2019-05-21T17:55:07.654Z,45.60
2019-05-21T17:57:37.013Z,46.30
2019-05-21T18:00:07.985Z,46.80
2019-05-21T18:02:37.323Z,46.90
2019-05-21T18:05:08.756Z,47.20
2019-05-21T18:07:38.694Z,46.50
2019-05-21T18:10:08.857Z,46.20
2019-05-21T18:12:37.737Z,46.90
2019-05-21T18:15:10.420Z,46.30
2019-05-21T18:17:40.405Z,46.60
2019-05-21T18:20:10.605Z,45.50
2019-05-21T18:22:40.352Z,45.10
2019-05-21T18:25:09.513Z,46.90
2019-05-21T18:27:38.694Z,46.80
2019-05-21T18:30:09.061Z,45.80
2019-05-21T18:32:38.111Z,46.40
2019-05-21T18:35:08.578Z,47.30
2019-05-21T18:37:39.157Z,48.20
2019-05-21T18:40:09.053Z,47.20
2019-05-21T18:42:38.047Z,48.20
2019-05-21T18:45:09.001Z,44.60
2019-05-21T18:47:38.020Z,46.30
2019-05-21T18:50:08.404Z,47.30
2019-05-21T18:52:39.180Z,48.30
2019-05-21T18:55:09.557Z,49.50
2019-05-21T18:57:38.716Z,50.80
2019-05-21T19:00:08.469Z,53.10
2019-05-21T19:02:37.733Z,52.20
2019-05-21T19:05:08.389Z,55.90
2019-05-21T19:07:38.808Z,57.50
2019-05-21T19:10:09.510Z,57.50
2019-05-21T19:12:38.960Z,58.80
2019-05-21T19:15:09.311Z,60.10
2019-05-21T19:17:38.264Z,61.00
2019-05-21T19:20:08.069Z,62.60
2019-05-21T19:22:37.148Z,62.50
2019-05-21T19:25:07.825Z,64.30
2019-05-21T19:27:36.681Z,68.40
2019-05-21T19:30:09.507Z,64.70
2019-05-21T19:32:39.214Z,66.00
2019-05-21T19:35:13.578Z,63.00
2019-05-21T19:37:45.485Z,64.60
2019-05-21T19:40:14.702Z,69.00
2019-05-21T19:42:54.476Z,65.00
2019-05-21T19:45:15.989Z,64.30
2019-05-21T19:47:44.735Z,64.60
2019-05-21T19:50:13.773Z,65.40
2019-05-21T19:52:42.677Z,65.50
2019-05-21T19:55:12.038Z,66.40
2019-05-21T19:57:42.579Z,66.50
2019-05-21T20:00:12.927Z,68.20
2019-05-21T20:02:42.374Z,65.70
2019-05-21T20:05:12.338Z,65.80
2019-05-21T20:07:41.712Z,64.70
2019-05-21T20:10:11.458Z,63.00
2019-05-21T20:12:41.435Z,64.80
2019-05-21T20:15:10.959Z,65.10
2019-05-21T20:17:41.230Z,61.60
2019-05-21T20:20:11.952Z,64.60
2019-05-21T20:22:43.350Z,62.70
2019-05-21T20:25:13.656Z,63.20
2019-05-21T20:27:42.620Z,62.80
2019-05-21T20:30:14.409Z,62.70
2019-05-21T20:32:44.569Z,64.10
2019-05-21T20:35:15.620Z,63.50
2019-05-21T20:37:45.175Z,64.10
2019-05-21T20:40:15.162Z,62.70
2019-05-21T20:42:44.723Z,64.00
2019-05-21T20:45:15.863Z,63.00
2019-05-21T20:47:44.750Z,62.90
2019-05-21T20:50:15.417Z,63.40
2019-05-21T20:52:46.319Z,64.10
2019-05-21T20:55:17.375Z,63.00
2019-05-21T20:57:47.118Z,63.20
2019-05-21T21:00:23.113Z,63.40
2019-05-21T21:02:52.632Z,63.10
2019-05-21T21:05:21.876Z,63.30
2019-05-21T21:07:51.691Z,63.20
2019-05-21T21:10:21.009Z,63.50
2019-05-21T21:12:49.908Z,64.20
2019-05-21T21:15:20.877Z,64.00
2019-05-21T21:17:49.718Z,67.00
2019-05-21T21:20:18.688Z,63.80
2019-05-21T21:22:47.756Z,63.10
2019-05-21T21:25:21.317Z,63.10
2019-05-21T21:27:50.206Z,63.60
2019-05-21T21:30:19.430Z,63.90
2019-05-21T21:32:48.363Z,64.40
2019-05-21T21:35:20.302Z,64.10
2019-05-21T21:37:49.537Z,64.10
2019-05-21T21:40:19.011Z,63.50
2019-05-21T21:42:47.953Z,64.50
2019-05-21T21:45:17.208Z,65.70
2019-05-21T21:47:46.049Z,67.50
2019-05-21T21:50:15.513Z,68.40
2019-05-21T21:52:44.370Z,69.50
2019-05-21T21:55:13.489Z,69.00
2019-05-21T21:57:42.355Z,69.40
2019-05-21T22:00:33.655Z,70.00
2019-05-21T22:03:07.011Z,72.00
2019-05-21T22:05:35.841Z,72.60
2019-05-21T22:08:06.107Z,73.30
2019-05-21T22:10:37.107Z,73.40
2019-05-21T22:13:06.667Z,73.90
2019-05-21T22:15:36.029Z,76.60
2019-05-21T22:18:05.405Z,74.90
2019-05-21T22:20:34.928Z,75.80
2019-05-21T22:23:03.870Z,75.90
2019-05-21T22:25:32.725Z,76.40
2019-05-21T22:28:01.621Z,77.20
2019-05-21T22:30:31.589Z,77.70
2019-05-21T22:33:00.542Z,78.70
2019-05-21T22:35:29.382Z,78.40
2019-05-21T22:37:58.294Z,78.50
2019-05-21T22:40:27.262Z,78.20
2019-05-21T22:43:15.387Z,78.40
2019-05-21T22:45:44.417Z,78.10
2019-05-21T22:48:13.675Z,78.40
2019-05-21T22:50:42.592Z,78.30
2019-05-21T22:53:13.035Z,77.90
2019-05-21T22:55:42.031Z,77.80
2019-05-21T22:58:11.006Z,77.30
2019-05-21T23:00:40.605Z,77.60
2019-05-21T23:03:09.848Z,77.30
2019-05-21T23:05:38.720Z,78.10
2019-05-21T23:08:08.180Z,79.50
2019-05-21T23:10:37.649Z,78.20
2019-05-21T23:13:06.533Z,78.80
2019-05-21T23:15:35.409Z,78.90
2019-05-21T23:18:05.403Z,78.90
2019-05-21T23:20:36.544Z,79.70
2019-05-21T23:23:06.201Z,79.50
2019-05-21T23:25:36.680Z,79.40
2019-05-21T23:28:05.824Z,80.20
2019-05-21T23:30:34.752Z,80.80
2019-05-21T23:33:04.609Z,80.90
2019-05-21T23:35:34.982Z,81.40
2019-05-21T23:38:04.043Z,81.80
2019-05-21T23:40:33.026Z,82.10
2019-05-21T23:43:01.876Z,83.70
2019-05-21T23:45:31.143Z,83.10
2019-05-21T23:48:00.699Z,83.50
2019-05-21T23:50:30.360Z,83.80
2019-05-21T23:52:59.435Z,84.10
2019-05-21T23:55:28.268Z,84.30
2019-05-21T23:57:57.915Z,84.20
